createdAt,value
2023-04-09T00:01:09.864Z,23.10
2023-04-09T00:03:38.942Z,22.75
2023-04-09T00:06:10.191Z,22.58
2023-04-09T00:08:41.159Z,24.58
2023-04-09T00:11:10.089Z,24.33
2023-04-09T00:13:40.368Z,23.40
2023-04-09T00:16:09.104Z,24.75
2023-04-09T00:18:44.165Z,22.55
2023-04-09T00:21:12.695Z,22.98
2023-04-09T00:23:44.258Z,23.08
2023-04-09T00:26:13.601Z,22.27
2023-04-09T00:28:44.278Z,24.50
2023-04-09T00:31:13.438Z,23.55
2023-04-09T00:33:42.079Z,22.58
2023-04-09T00:36:12.343Z,25.05
2023-04-09T00:38:44.030Z,24.50
2023-04-09T00:41:12.587Z,22.55
2023-04-09T00:43:43.942Z,25.08
2023-04-09T00:46:17.763Z,27.30
2023-04-09T00:48:46.876Z,24.05
2023-04-09T00:51:17.585Z,25.15
2023-04-09T00:53:47.380Z,23.80
2023-04-09T00:56:17.661Z,24.55
2023-04-09T00:58:47.452Z,23.90
2023-04-09T01:01:18.265Z,24.83
2023-04-09T01:03:55.081Z,24.15
2023-04-09T01:06:29.048Z,26.20
2023-04-09T01:08:57.472Z,24.17
2023-04-09T01:11:34.997Z,26.40
2023-04-09T01:14:04.586Z,24.70
2023-04-09T01:16:35.356Z,24.30
2023-04-09T01:19:11.317Z,26.20
2023-04-09T01:21:41.561Z,24.83
2023-04-09T01:24:25.846Z,26.17
2023-04-09T01:27:04.849Z,26.38
2023-04-09T01:29:54.549Z,24.50
2023-04-09T01:32:23.204Z,24.88
2023-04-09T01:34:52.432Z,25.27
2023-04-09T01:37:24.148Z,24.15
2023-04-09T01:39:52.858Z,24.38
2023-04-09T01:42:21.822Z,23.63
2023-04-09T01:44:52.269Z,24.33
2023-04-09T01:47:20.848Z,24.15
2023-04-09T01:49:50.469Z,26.33
2023-04-09T01:52:21.486Z,24.67
2023-04-09T01:54:52.284Z,25.23
2023-04-09T01:57:20.845Z,25.52
2023-04-09T01:59:49.277Z,25.17
2023-04-09T02:02:20.530Z,23.88
2023-04-09T02:04:50.332Z,24.20
2023-04-09T02:07:31.073Z,24.13
2023-04-09T02:10:02.221Z,23.58
2023-04-09T02:12:43.794Z,24.88
2023-04-09T02:15:13.862Z,23.65
2023-04-09T02:17:50.063Z,25.55
2023-04-09T02:20:21.905Z,25.77
2023-04-09T02:22:58.032Z,24.95
2023-04-09T02:25:27.893Z,25.85
2023-04-09T02:27:57.059Z,26.27
2023-04-09T02:30:25.983Z,24.90
2023-04-09T02:33:09.881Z,23.23
2023-04-09T02:35:38.471Z,24.50
2023-04-09T02:38:13.581Z,25.55
2023-04-09T02:40:43.565Z,24.95
2023-04-09T02:43:12.987Z,25.15
2023-04-09T02:45:46.739Z,27.00
2023-04-09T02:48:18.062Z,27.38
2023-04-09T02:50:48.016Z,25.85
2023-04-09T02:53:18.849Z,24.83
2023-04-09T02:55:48.268Z,27.05
2023-04-09T02:58:17.610Z,27.23
2023-04-09T03:00:46.353Z,26.25
2023-04-09T03:03:33.036Z,27.30
2023-04-09T03:06:01.723Z,27.95
2023-04-09T03:08:34.097Z,27.40
2023-04-09T03:11:03.614Z,27.60
2023-04-09T03:13:32.487Z,26.90
2023-04-09T03:16:02.401Z,27.13
2023-04-09T03:18:37.428Z,27.50
2023-04-09T03:21:11.240Z,28.15
2023-04-09T03:23:47.021Z,27.17
2023-04-09T03:26:15.956Z,27.38
2023-04-09T03:28:52.336Z,28.92
2023-04-09T03:31:21.329Z,27.02
2023-04-09T03:33:52.591Z,27.77
2023-04-09T03:36:21.878Z,27.88
2023-04-09T03:39:03.239Z,28.95
2023-04-09T03:41:35.925Z,29.13
2023-04-09T03:44:09.399Z,29.85
2023-04-09T03:46:57.144Z,29.20
2023-04-09T03:49:29.316Z,30.42
2023-04-09T03:52:05.109Z,31.30
2023-04-09T03:54:39.544Z,29.48
2023-04-09T03:57:14.337Z,27.60
2023-04-09T03:59:45.528Z,26.88
2023-04-09T04:02:18.344Z,29.80
2023-04-09T04:04:52.713Z,27.60
2023-04-09T04:07:22.725Z,25.95
2023-04-09T04:09:57.417Z,28.60
2023-04-09T04:12:26.585Z,27.38
2023-04-09T04:15:09.426Z,27.10
2023-04-09T04:17:54.698Z,27.73
2023-04-09T04:20:55.402Z,25.40
2023-04-09T04:23:24.297Z,25.23
2023-04-09T04:26:15.566Z,26.17
2023-04-09T04:28:43.920Z,27.23
2023-04-09T04:31:17.751Z,26.98
2023-04-09T04:33:48.793Z,25.20
2023-04-09T04:36:18.352Z,25.50
2023-04-09T04:38:50.769Z,26.48
2023-04-09T04:41:28.165Z,26.55
2023-04-09T04:44:10.991Z,25.05
2023-04-09T04:46:40.915Z,24.73
2023-04-09T04:49:09.580Z,27.20
2023-04-09T04:51:44.896Z,27.38
2023-04-09T04:54:16.281Z,26.77
2023-04-09T04:56:54.123Z,25.13
2023-04-09T04:59:40.813Z,26.02
2023-04-09T05:02:13.322Z,25.33
2023-04-09T05:05:05.197Z,26.10
2023-04-09T05:07:43.889Z,27.83
2023-04-09T05:10:14.891Z,24.23
2023-04-09T05:12:52.131Z,26.48
2023-04-09T05:15:28.931Z,27.88
2023-04-09T05:18:06.611Z,26.40
2023-04-09T05:20:37.340Z,28.52
2023-04-09T05:23:14.143Z,26.92
2023-04-09T05:25:45.973Z,28.17
2023-04-09T05:28:28.218Z,26.45
2023-04-09T05:31:11.771Z,25.90
2023-04-09T05:33:53.977Z,27.92
2023-04-09T05:36:32.174Z,26.92
2023-04-09T05:39:04.402Z,26.48
2023-04-09T05:41:38.491Z,26.23
2023-04-09T05:44:24.704Z,26.52
2023-04-09T05:47:01.302Z,26.70
2023-04-09T05:49:36.419Z,27.88
2023-04-09T05:52:10.385Z,26.83
2023-04-09T05:54:39.703Z,28.27
2023-04-09T05:59:45.679Z,24.90
2023-04-09T06:02:15.302Z,25.40
2023-04-09T06:04:48.643Z,26.27
2023-04-09T06:07:17.708Z,27.30
2023-04-09T06:09:47.177Z,26.80
2023-04-09T06:12:15.724Z,26.65
2023-04-09T06:14:44.575Z,28.20
2023-04-09T06:17:13.413Z,26.88
2023-04-09T06:19:42.200Z,23.17
2023-04-09T06:22:11.981Z,24.80
2023-04-09T06:24:40.801Z,21.92
2023-04-09T06:27:11.403Z,22.58
2023-04-09T06:29:41.128Z,22.65
2023-04-09T06:32:10.304Z,22.83
2023-04-09T06:34:39.792Z,21.25
2023-04-09T06:37:11.073Z,20.20
2023-04-09T06:39:47.600Z,17.40
2023-04-09T06:42:26.752Z,15.18
2023-04-09T06:45:08.615Z,13.57
2023-04-09T06:47:51.315Z,12.32
2023-04-09T06:50:19.843Z,11.95
2023-04-09T06:52:50.106Z,11.60
2023-04-09T06:55:19.899Z,10.38
2023-04-09T06:57:51.720Z,9.75
2023-04-09T07:00:20.591Z,9.57
2023-04-09T07:03:10.537Z,8.63
2023-04-09T07:05:42.092Z,9.05
2023-04-09T07:08:10.506Z,8.38
2023-04-09T07:10:41.564Z,9.73
2023-04-09T07:13:11.644Z,8.75
2023-04-09T07:15:51.883Z,8.07
2023-04-09T07:18:21.647Z,8.85
2023-04-09T07:20:50.601Z,9.93
2023-04-09T07:23:20.574Z,10.00
2023-04-09T07:25:51.567Z,9.25
2023-04-09T07:28:21.122Z,8.20
2023-04-09T07:30:49.390Z,11.07
2023-04-09T07:33:22.582Z,8.75
2023-04-09T07:35:53.524Z,8.93
2023-04-09T07:38:26.471Z,8.40
2023-04-09T07:40:55.670Z,8.02
2023-04-09T07:43:27.539Z,13.15
2023-04-09T07:45:57.006Z,9.57
2023-04-09T07:48:29.021Z,8.63
2023-04-09T07:50:57.437Z,8.23
2023-04-09T07:53:26.767Z,7.75
2023-04-09T07:55:55.656Z,7.53
2023-04-09T07:58:26.631Z,7.38
2023-04-09T08:00:57.265Z,6.65
2023-04-09T08:03:40.922Z,6.72
2023-04-09T08:06:09.401Z,6.88
2023-04-09T08:08:40.361Z,7.13
2023-04-09T08:11:09.437Z,7.40
2023-04-09T08:13:39.123Z,6.80
2023-04-09T08:16:07.786Z,7.22
2023-04-09T08:18:39.728Z,6.78
2023-04-09T08:21:08.415Z,6.78
2023-04-09T08:23:37.729Z,7.30
2023-04-09T08:26:06.130Z,6.68
2023-04-09T08:28:38.713Z,13.38
2023-04-09T08:31:07.962Z,6.38
2023-04-09T08:33:40.482Z,5.38
2023-04-09T08:36:11.825Z,5.68
2023-04-09T08:38:42.258Z,5.32
2023-04-09T08:41:18.484Z,5.88
2023-04-09T08:43:57.742Z,5.60
2023-04-09T08:46:27.627Z,6.38
2023-04-09T08:48:56.426Z,5.53
2023-04-09T08:51:25.671Z,5.57
2023-04-09T08:53:56.987Z,5.55
2023-04-09T08:56:27.089Z,5.97
2023-04-09T08:58:58.617Z,6.00
2023-04-09T09:01:27.270Z,6.00
2023-04-09T09:03:57.072Z,5.25
2023-04-09T09:06:27.920Z,5.30
2023-04-09T09:09:01.761Z,5.88
2023-04-09T09:11:31.989Z,5.55
2023-04-09T09:14:02.765Z,4.70
2023-04-09T09:16:33.236Z,5.25
2023-04-09T09:19:02.480Z,4.85
2023-04-09T09:21:38.689Z,4.38
2023-04-09T09:24:17.559Z,4.05
2023-04-09T09:26:48.598Z,5.22
2023-04-09T09:29:19.894Z,4.43
2023-04-09T09:31:50.177Z,4.25
2023-04-09T09:34:23.136Z,3.88
2023-04-09T09:36:51.473Z,4.15
2023-04-09T09:39:22.274Z,4.45
2023-04-09T09:42:08.281Z,4.75
2023-04-09T09:44:37.953Z,4.50
2023-04-09T09:47:06.823Z,4.22
2023-04-09T09:49:36.760Z,4.25
2023-04-09T09:52:09.533Z,4.40
2023-04-09T09:54:42.855Z,4.60
2023-04-09T09:57:13.611Z,4.50
2023-04-09T09:59:48.676Z,4.88
2023-04-09T10:02:22.200Z,5.07
2023-04-09T10:04:52.602Z,6.93
2023-04-09T10:07:22.382Z,5.50
2023-04-09T10:09:52.928Z,4.07
2023-04-09T10:12:24.758Z,4.88
2023-04-09T10:14:53.651Z,4.13
2023-04-09T10:17:22.787Z,4.93
2023-04-09T10:20:00.315Z,4.63
2023-04-09T10:22:32.598Z,4.00
2023-04-09T10:25:01.514Z,4.90
2023-04-09T10:27:31.704Z,4.75
2023-04-09T10:30:02.985Z,4.50
2023-04-09T10:32:45.964Z,4.30
2023-04-09T10:35:26.616Z,6.85
2023-04-09T10:37:55.745Z,5.05
2023-04-09T10:40:29.023Z,3.88
2023-04-09T10:42:58.399Z,4.20
2023-04-09T10:45:39.899Z,3.40
2023-04-09T10:48:12.142Z,3.30
2023-04-09T10:50:41.081Z,3.67
2023-04-09T10:53:21.773Z,3.58
2023-04-09T10:55:50.899Z,4.22
2023-04-09T10:58:22.098Z,3.45
2023-04-09T11:00:52.797Z,3.78
2023-04-09T11:03:23.774Z,3.63
2023-04-09T11:06:01.533Z,3.78
2023-04-09T11:08:34.958Z,3.88
2023-04-09T11:11:03.916Z,3.55
2023-04-09T11:13:34.127Z,4.10
2023-04-09T11:16:07.169Z,4.05
2023-04-09T11:18:40.283Z,4.05
2023-04-09T11:21:10.158Z,4.53
2023-04-09T11:23:42.514Z,4.05
2023-04-09T11:26:18.178Z,3.95
2023-04-09T11:28:46.722Z,3.42
2023-04-09T11:31:16.651Z,4.22
2023-04-09T11:33:58.665Z,4.22
2023-04-09T11:36:28.343Z,3.72
2023-04-09T11:38:57.618Z,4.43
2023-04-09T11:41:35.858Z,4.32
2023-04-09T11:44:07.280Z,4.35
2023-04-09T11:46:36.790Z,4.55
2023-04-09T11:49:05.555Z,4.07
2023-04-09T11:51:37.827Z,3.80
2023-04-09T11:54:06.955Z,3.90
2023-04-09T11:56:36.772Z,4.10
2023-04-09T11:59:05.629Z,4.45
2023-04-09T12:01:37.013Z,4.07
2023-04-09T12:04:07.902Z,4.07
2023-04-09T12:06:41.700Z,4.28
2023-04-09T12:09:13.648Z,4.45
2023-04-09T12:11:46.494Z,4.45
2023-04-09T12:14:17.858Z,3.92
2023-04-09T12:16:51.786Z,4.38
2023-04-09T12:19:21.230Z,4.05
2023-04-09T12:21:49.785Z,4.43
2023-04-09T12:24:21.653Z,3.90
2023-04-09T12:26:50.797Z,4.30
2023-04-09T12:29:22.045Z,4.22
2023-04-09T12:31:53.844Z,4.05
2023-04-09T12:34:23.389Z,4.38
2023-04-09T12:36:51.895Z,4.00
2023-04-09T12:39:22.720Z,3.78
2023-04-09T12:41:51.319Z,4.32
2023-04-09T12:44:20.308Z,4.18
2023-04-09T12:46:51.319Z,4.40
2023-04-09T12:49:20.056Z,4.15
2023-04-09T12:51:51.176Z,4.57
2023-04-09T12:54:22.427Z,5.90
2023-04-09T12:56:51.072Z,4.03
2023-04-09T12:59:19.428Z,3.70
2023-04-09T13:01:48.276Z,4.13
2023-04-09T13:04:18.206Z,4.63
2023-04-09T13:06:46.866Z,4.03
2023-04-09T13:09:15.442Z,4.00
2023-04-09T13:11:50.497Z,4.25
2023-04-09T13:14:19.648Z,4.25
2023-04-09T13:16:52.443Z,5.00
2023-04-09T13:19:21.318Z,4.55
2023-04-09T13:21:50.662Z,4.47
2023-04-09T13:24:22.624Z,4.22
2023-04-09T13:26:52.485Z,4.15
2023-04-09T13:29:26.272Z,4.03
2023-04-09T13:31:54.994Z,3.95
2023-04-09T13:34:24.786Z,3.80
2023-04-09T13:36:53.943Z,3.95
2023-04-09T13:39:22.587Z,4.20
2023-04-09T13:41:56.101Z,4.15
2023-04-09T13:44:27.738Z,4.30
2023-04-09T13:46:56.529Z,4.30
2023-04-09T13:49:26.850Z,4.20
2023-04-09T13:51:55.746Z,3.42
2023-04-09T13:54:24.895Z,4.07
2023-04-09T13:56:54.090Z,4.68
2023-04-09T13:59:24.054Z,4.13
2023-04-09T14:01:55.052Z,4.90
2023-04-09T14:04:26.030Z,4.47
2023-04-09T14:07:19.734Z,3.65
2023-04-09T14:09:49.057Z,3.55
2023-04-09T14:12:20.393Z,3.60
2023-04-09T14:14:50.000Z,3.50
2023-04-09T14:17:20.013Z,2.92
2023-04-09T14:19:49.928Z,3.80
2023-04-09T14:22:18.402Z,3.80
2023-04-09T14:24:47.120Z,3.40
2023-04-09T14:27:17.819Z,3.45
2023-04-09T14:29:48.626Z,2.88
2023-04-09T14:32:17.811Z,3.00
2023-04-09T14:34:46.324Z,3.03
2023-04-09T14:37:14.691Z,2.70
2023-04-09T14:39:46.765Z,3.42
2023-04-09T14:42:19.045Z,3.08
2023-04-09T14:44:48.317Z,3.47
2023-04-09T14:47:17.734Z,2.88
2023-04-09T14:49:49.280Z,2.88
2023-04-09T14:52:18.099Z,3.30
2023-04-09T14:54:47.097Z,2.85
2023-04-09T14:57:15.788Z,2.88
2023-04-09T14:59:44.856Z,3.13
2023-04-09T15:02:13.313Z,3.45
2023-04-09T15:04:42.016Z,2.95
2023-04-09T15:07:10.635Z,3.17
2023-04-09T15:09:39.755Z,3.58
2023-04-09T15:12:09.531Z,6.60
2023-04-09T15:14:38.077Z,2.20
2023-04-09T15:17:07.658Z,3.28
2023-04-09T15:19:37.295Z,3.08
2023-04-09T15:22:08.885Z,3.35
2023-04-09T15:24:37.456Z,4.20
2023-04-09T15:27:05.864Z,2.65
2023-04-09T15:29:35.496Z,2.63
2023-04-09T15:32:05.022Z,3.53
2023-04-09T15:34:36.486Z,3.38
2023-04-09T15:37:05.261Z,3.22
2023-04-09T15:39:35.197Z,3.03
2023-04-09T15:42:04.119Z,3.08
2023-04-09T15:44:39.053Z,3.17
2023-04-09T15:47:09.188Z,2.60
2023-04-09T15:49:40.356Z,2.75
2023-04-09T15:52:09.648Z,2.72
2023-04-09T15:54:40.415Z,2.85
2023-04-09T15:57:11.294Z,2.50
2023-04-09T15:59:42.420Z,2.85
2023-04-09T16:02:11.665Z,3.17
2023-04-09T16:04:40.426Z,5.55
2023-04-09T16:07:11.878Z,5.90
2023-04-09T16:09:40.879Z,3.20
2023-04-09T16:12:09.744Z,2.80
2023-04-09T16:14:40.414Z,2.70
2023-04-09T16:17:10.276Z,2.67
2023-04-09T16:19:42.913Z,2.67
2023-04-09T16:22:13.362Z,3.05
2023-04-09T16:24:44.768Z,2.75
2023-04-09T16:27:14.489Z,2.58
2023-04-09T16:29:44.318Z,3.40
2023-04-09T16:32:18.360Z,2.97
2023-04-09T16:34:49.949Z,2.90
2023-04-09T16:37:18.936Z,2.95
2023-04-09T16:39:47.521Z,4.03
2023-04-09T16:42:15.986Z,3.40
2023-04-09T16:44:44.529Z,2.85
2023-04-09T16:47:15.773Z,3.05
2023-04-09T16:49:44.849Z,3.47
2023-04-09T16:52:16.941Z,3.05
2023-04-09T16:54:48.720Z,3.35
2023-04-09T16:57:17.300Z,3.50
2023-04-09T16:59:50.811Z,3.63
2023-04-09T17:02:22.057Z,3.40
2023-04-09T17:04:53.692Z,3.28
2023-04-09T17:07:26.610Z,3.10
2023-04-09T17:09:55.770Z,3.28
2023-04-09T17:12:25.207Z,3.35
2023-04-09T17:14:53.811Z,3.35
2023-04-09T17:17:23.463Z,3.40
2023-04-09T17:19:52.052Z,3.67
2023-04-09T17:22:23.323Z,2.80
2023-04-09T17:24:52.753Z,2.90
2023-04-09T17:27:21.186Z,3.28
2023-04-09T17:29:50.980Z,3.10
2023-04-09T17:32:22.082Z,3.25
2023-04-09T17:34:53.486Z,3.28
2023-04-09T17:37:22.624Z,3.20
2023-04-09T17:39:56.048Z,3.42
2023-04-09T17:42:26.726Z,2.60
2023-04-09T17:44:55.436Z,2.95
2023-04-09T17:47:24.545Z,3.40
2023-04-09T17:49:53.537Z,3.30
2023-04-09T17:52:22.489Z,3.15
2023-04-09T17:54:53.862Z,3.25
2023-04-09T17:57:27.027Z,3.45
2023-04-09T17:59:56.560Z,3.40
2023-04-09T18:02:25.172Z,3.45
2023-04-09T18:04:54.048Z,2.90
2023-04-09T18:07:24.491Z,3.22
2023-04-09T18:09:53.238Z,3.33
2023-04-09T18:12:24.668Z,3.63
2023-04-09T18:14:55.575Z,3.20
2023-04-09T18:17:26.318Z,2.97
2023-04-09T18:19:58.672Z,2.88
2023-04-09T18:22:27.562Z,3.40
2023-04-09T18:24:56.518Z,3.90
2023-04-09T18:27:28.093Z,3.72
2023-04-09T18:29:56.699Z,3.58
2023-04-09T18:32:26.789Z,3.10
2023-04-09T18:34:58.460Z,3.10
2023-04-09T18:37:27.773Z,3.30
2023-04-09T18:39:59.197Z,2.95
2023-04-09T18:42:32.858Z,3.08
2023-04-09T18:45:02.013Z,3.25
2023-04-09T18:47:35.740Z,3.45
2023-04-09T18:50:06.444Z,3.17
2023-04-09T18:52:39.441Z,3.10
2023-04-09T18:55:09.492Z,3.40
2023-04-09T18:57:44.277Z,3.78
2023-04-09T19:00:13.254Z,3.25
2023-04-09T19:02:55.699Z,3.53
2023-04-09T19:05:28.300Z,4.50
2023-04-09T19:07:58.930Z,5.18
2023-04-09T19:10:27.420Z,5.57
2023-04-09T19:12:57.031Z,4.57
2023-04-09T19:15:29.392Z,4.40
2023-04-09T19:18:08.412Z,4.72
2023-04-09T19:20:39.669Z,4.30
2023-04-09T19:23:08.604Z,5.28
2023-04-09T19:25:37.181Z,4.55
2023-04-09T19:28:05.685Z,5.85
2023-04-09T19:30:35.851Z,6.68
2023-04-09T19:33:26.990Z,6.72
2023-04-09T19:35:56.101Z,6.03
2023-04-09T19:38:26.947Z,5.82
2023-04-09T19:40:55.327Z,5.07
2023-04-09T19:43:23.771Z,4.97
2023-04-09T19:45:56.302Z,4.93
2023-04-09T19:48:25.528Z,4.90
2023-04-09T19:50:54.346Z,4.97
2023-04-09T19:53:25.325Z,5.10
2023-04-09T19:55:54.259Z,4.45
2023-04-09T19:58:23.118Z,4.80
2023-04-09T20:00:52.702Z,4.75
2023-04-09T20:03:37.850Z,3.95
2023-04-09T20:06:10.662Z,4.20
2023-04-09T20:08:41.694Z,4.32
2023-04-09T20:11:17.142Z,3.80
2023-04-09T20:13:47.566Z,4.38
2023-04-09T20:16:18.770Z,3.75
2023-04-09T20:18:49.802Z,4.70
2023-04-09T20:21:21.037Z,4.25
2023-04-09T20:23:50.946Z,3.72
2023-04-09T20:26:20.419Z,4.78
2023-04-09T20:28:51.513Z,3.80
2023-04-09T20:31:23.722Z,4.18
2023-04-09T20:34:03.855Z,4.35
2023-04-09T20:36:37.632Z,4.15
2023-04-09T20:39:06.562Z,4.40
2023-04-09T20:41:39.361Z,4.47
2023-04-09T20:44:09.191Z,4.57
2023-04-09T20:46:37.585Z,4.57
2023-04-09T20:49:09.208Z,3.97
2023-04-09T20:51:38.379Z,4.70
2023-04-09T20:54:11.382Z,5.13
2023-04-09T20:56:40.778Z,4.47
2023-04-09T20:59:09.926Z,5.07
2023-04-09T21:01:39.727Z,4.60
2023-04-09T21:04:10.644Z,4.53
2023-04-09T21:06:41.474Z,4.70
2023-04-09T21:09:12.728Z,4.70
2023-04-09T21:11:44.017Z,5.03
2023-04-09T21:14:14.597Z,4.78
2023-04-09T21:16:42.895Z,4.80
2023-04-09T21:19:11.522Z,5.03
2023-04-09T21:21:40.962Z,4.97
2023-04-09T21:24:12.644Z,4.80
2023-04-09T21:26:50.094Z,4.93
2023-04-09T21:29:21.674Z,5.05
2023-04-09T21:31:52.127Z,4.38
2023-04-09T21:34:21.657Z,4.95
2023-04-09T21:36:51.269Z,5.45
2023-04-09T21:39:29.643Z,5.35
2023-04-09T21:42:02.715Z,4.68
2023-04-09T21:44:32.641Z,5.20
2023-04-09T21:47:07.505Z,6.20
2023-04-09T21:49:39.257Z,4.88
2023-04-09T21:52:14.173Z,5.40
2023-04-09T21:54:48.106Z,5.07
2023-04-09T21:57:18.508Z,4.85
2023-04-09T21:59:47.641Z,4.85
2023-04-09T22:02:16.229Z,5.13
2023-04-09T22:04:48.953Z,5.00
2023-04-09T22:07:24.086Z,4.88
2023-04-09T22:09:55.797Z,4.97
2023-04-09T22:12:26.796Z,4.95
2023-04-09T22:14:55.447Z,4.85
2023-04-09T22:17:24.165Z,5.13
2023-04-09T22:19:52.920Z,4.55
2023-04-09T22:22:22.002Z,4.95
2023-04-09T22:24:54.765Z,4.53
2023-04-09T22:27:23.530Z,4.68
2023-04-09T22:29:52.449Z,4.72
2023-04-09T22:32:21.670Z,4.38
2023-04-09T22:34:50.012Z,5.38
2023-04-09T22:37:18.346Z,4.93
2023-04-09T22:39:48.903Z,4.53
2023-04-09T22:42:19.868Z,4.85
2023-04-09T22:44:49.489Z,4.97
2023-04-09T22:47:17.777Z,4.95
2023-04-09T22:49:46.199Z,4.95
2023-04-09T22:52:15.106Z,5.22
2023-04-09T22:54:44.157Z,5.78
2023-04-09T22:57:14.655Z,4.75
2023-04-09T22:59:43.477Z,4.68
2023-04-09T23:04:46.383Z,5.43
2023-04-09T23:07:15.511Z,5.93
2023-04-09T23:09:46.145Z,4.97
2023-04-09T23:12:14.678Z,5.00
2023-04-09T23:14:43.844Z,4.90
2023-04-09T23:17:15.004Z,4.93
2023-04-09T23:19:43.584Z,4.72
2023-04-09T23:22:11.770Z,4.50
2023-04-09T23:24:40.357Z,4.80
2023-04-09T23:27:12.042Z,4.88
2023-04-09T23:29:42.282Z,4.63
2023-04-09T23:32:10.759Z,4.78
2023-04-09T23:34:41.408Z,5.25
2023-04-09T23:37:10.286Z,5.68
2023-04-09T23:39:42.004Z,4.90
2023-04-09T23:42:10.889Z,4.70
2023-04-09T23:44:39.331Z,5.68
2023-04-09T23:47:12.079Z,4.95
2023-04-09T23:49:43.414Z,4.70
2023-04-09T23:52:14.363Z,4.90
2023-04-09T23:54:50.294Z,5.07
2023-04-09T23:57:19.035Z,4.73
2023-04-09T23:59:49.430Z,5.28
